sensor_id;sensor_type;location;lat;lon;timestamp;P1;durP1;ratioP1;P2;durP2;ratioP2
8102;SDS011;4094;49.948;11.574;2023-04-24T00:01:09;5.63;;;5.13;;
8102;SDS011;4094;49.948;11.574;2023-04-24T00:03:41;5.20;;;4.90;;
8102;SDS011;4094;49.948;11.574;2023-04-24T00:06:11;5.77;;;5.47;;
8102;SDS011;4094;49.948;11.574;2023-04-24T00:08:40;5.57;;;5.20;;
8102;SDS011;4094;49.948;11.574;2023-04-24T00:11:09;5.50;;;5.20;;
8102;SDS011;4094;49.948;11.574;2023-04-24T00:13:39;5.20;;;4.90;;
8102;SDS011;4094;49.948;11.574;2023-04-24T00:16:08;6.10;;;5.70;;
8102;SDS011;4094;49.948;11.574;2023-04-24T00:18:37;5.27;;;4.97;;
8102;SDS011;4094;49.948;11.574;2023-04-24T00:21:08;5.60;;;5.30;;
8102;SDS011;4094;49.948;11.574;2023-04-24T00:23:37;5.53;;;5.23;;
8102;SDS011;4094;49.948;11.574;2023-04-24T00:26:07;5.87;;;5.43;;
8102;SDS011;4094;49.948;11.574;2023-04-24T00:28:36;5.50;;;5.23;;
8102;SDS011;4094;49.948;11.574;2023-04-24T00:31:05;5.70;;;5.30;;
8102;SDS011;4094;49.948;11.574;2023-04-24T00:33:34;5.37;;;5.00;;
8102;SDS011;4094;49.948;11.574;2023-04-24T00:36:04;5.57;;;5.27;;
8102;SDS011;4094;49.948;11.574;2023-04-24T00:38:35;5.50;;;5.10;;
8102;SDS011;4094;49.948;11.574;2023-04-24T00:41:05;5.87;;;5.47;;
8102;SDS011;4094;49.948;11.574;2023-04-24T00:43:34;5.27;;;4.97;;
8102;SDS011;4094;49.948;11.574;2023-04-24T00:46:03;5.50;;;5.20;;
8102;SDS011;4094;49.948;11.574;2023-04-24T00:48:33;5.53;;;5.23;;
8102;SDS011;4094;49.948;11.574;2023-04-24T00:51:03;5.43;;;5.03;;
8102;SDS011;4094;49.948;11.574;2023-04-24T00:53:32;5.60;;;5.30;;
8102;SDS011;4094;49.948;11.574;2023-04-24T00:56:03;5.10;;;4.77;;
8102;SDS011;4094;49.948;11.574;2023-04-24T00:58:33;6.10;;;5.67;;
8102;SDS011;4094;49.948;11.574;2023-04-24T01:01:03;5.43;;;5.13;;
8102;SDS011;4094;49.948;11.574;2023-04-24T01:03:35;5.27;;;4.97;;
8102;SDS011;4094;49.948;11.574;2023-04-24T01:06:05;5.60;;;5.30;;
8102;SDS011;4094;49.948;11.574;2023-04-24T01:08:36;6.30;;;5.87;;
8102;SDS011;4094;49.948;11.574;2023-04-24T01:11:08;5.70;;;5.40;;
8102;SDS011;4094;49.948;11.574;2023-04-24T01:13:39;5.13;;;4.83;;
8102;SDS011;4094;49.948;11.574;2023-04-24T01:16:10;5.67;;;5.37;;
8102;SDS011;4094;49.948;11.574;2023-04-24T01:18:39;5.93;;;5.63;;
8102;SDS011;4094;49.948;11.574;2023-04-24T01:21:11;5.63;;;5.23;;
8102;SDS011;4094;49.948;11.574;2023-04-24T01:23:45;6.27;;;5.87;;
8102;SDS011;4094;49.948;11.574;2023-04-24T01:26:15;5.77;;;5.47;;
8102;SDS011;4094;49.948;11.574;2023-04-24T01:28:47;6.07;;;5.67;;
8102;SDS011;4094;49.948;11.574;2023-04-24T01:31:17;6.40;;;5.80;;
8102;SDS011;4094;49.948;11.574;2023-04-24T01:33:46;6.10;;;5.70;;
8102;SDS011;4094;49.948;11.574;2023-04-24T01:36:16;5.67;;;5.27;;
8102;SDS011;4094;49.948;11.574;2023-04-24T01:38:48;5.97;;;5.67;;
8102;SDS011;4094;49.948;11.574;2023-04-24T01:41:17;6.37;;;5.87;;
8102;SDS011;4094;49.948;11.574;2023-04-24T01:43:47;5.80;;;5.50;;
8102;SDS011;4094;49.948;11.574;2023-04-24T01:46:20;5.90;;;5.40;;
8102;SDS011;4094;49.948;11.574;2023-04-24T01:48:49;6.20;;;5.80;;
8102;SDS011;4094;49.948;11.574;2023-04-24T01:51:20;6.10;;;5.70;;
8102;SDS011;4094;49.948;11.574;2023-04-24T01:53:50;6.13;;;5.80;;
8102;SDS011;4094;49.948;11.574;2023-04-24T01:56:21;6.23;;;5.77;;
8102;SDS011;4094;49.948;11.574;2023-04-24T01:58:51;6.37;;;5.87;;
8102;SDS011;4094;49.948;11.574;2023-04-24T02:01:23;6.00;;;5.60;;
8102;SDS011;4094;49.948;11.574;2023-04-24T02:03:53;6.40;;;5.90;;
8102;SDS011;4094;49.948;11.574;2023-04-24T02:06:23;6.23;;;5.73;;
8102;SDS011;4094;49.948;11.574;2023-04-24T02:08:54;6.03;;;5.67;;
8102;SDS011;4094;49.948;11.574;2023-04-24T02:11:23;5.97;;;5.67;;
8102;SDS011;4094;49.948;11.574;2023-04-24T02:13:52;6.43;;;5.93;;
8102;SDS011;4094;49.948;11.574;2023-04-24T02:16:22;6.17;;;5.67;;
8102;SDS011;4094;49.948;11.574;2023-04-24T02:18:52;6.23;;;5.83;;
8102;SDS011;4094;49.948;11.574;2023-04-24T02:21:21;6.53;;;6.07;;
8102;SDS011;4094;49.948;11.574;2023-04-24T02:23:50;6.40;;;6.00;;
8102;SDS011;4094;49.948;11.574;2023-04-24T02:26:22;6.50;;;6.00;;
8102;SDS011;4094;49.948;11.574;2023-04-24T02:28:52;7.13;;;6.63;;
8102;SDS011;4094;49.948;11.574;2023-04-24T02:31:22;6.73;;;5.97;;
8102;SDS011;4094;49.948;11.574;2023-04-24T02:33:51;6.90;;;6.40;;
8102;SDS011;4094;49.948;11.574;2023-04-24T02:36:21;6.50;;;6.00;;
8102;SDS011;4094;49.948;11.574;2023-04-24T02:38:50;6.33;;;5.90;;
8102;SDS011;4094;49.948;11.574;2023-04-24T02:41:19;6.63;;;6.20;;
8102;SDS011;4094;49.948;11.574;2023-04-24T02:43:50;6.80;;;6.20;;
8102;SDS011;4094;49.948;11.574;2023-04-24T02:46:19;6.00;;;5.70;;
8102;SDS011;4094;49.948;11.574;2023-04-24T02:48:48;6.20;;;5.80;;
8102;SDS011;4094;49.948;11.574;2023-04-24T02:51:18;5.67;;;5.37;;
8102;SDS011;4094;49.948;11.574;2023-04-24T02:53:47;6.70;;;6.20;;
8102;SDS011;4094;49.948;11.574;2023-04-24T02:56:16;6.53;;;6.13;;
8102;SDS011;4094;49.948;11.574;2023-04-24T02:58:45;5.90;;;5.57;;
8102;SDS011;4094;49.948;11.574;2023-04-24T03:01:16;7.20;;;6.60;;
8102;SDS011;4094;49.948;11.574;2023-04-24T03:03:45;5.90;;;5.50;;
8102;SDS011;4094;49.948;11.574;2023-04-24T03:06:15;6.90;;;6.50;;
8102;SDS011;4094;49.948;11.574;2023-04-24T03:08:44;6.53;;;6.07;;
8102;SDS011;4094;49.948;11.574;2023-04-24T03:11:13;6.30;;;5.90;;
8102;SDS011;4094;49.948;11.574;2023-04-24T03:13:42;6.40;;;6.00;;
8102;SDS011;4094;49.948;11.574;2023-04-24T03:16:12;7.20;;;6.80;;
8102;SDS011;4094;49.948;11.574;2023-04-24T03:18:42;6.70;;;6.30;;
8102;SDS011;4094;49.948;11.574;2023-04-24T03:21:13;7.07;;;6.57;;
8102;SDS011;4094;49.948;11.574;2023-04-24T03:23:43;6.63;;;6.20;;
8102;SDS011;4094;49.948;11.574;2023-04-24T03:26:12;7.23;;;6.70;;
8102;SDS011;4094;49.948;11.574;2023-04-24T03:28:53;6.87;;;6.37;;
8102;SDS011;4094;49.948;11.574;2023-04-24T03:31:23;6.60;;;6.20;;
8102;SDS011;4094;49.948;11.574;2023-04-24T03:33:54;6.60;;;6.30;;
8102;SDS011;4094;49.948;11.574;2023-04-24T03:36:23;6.47;;;6.07;;
8102;SDS011;4094;49.948;11.574;2023-04-24T03:38:54;6.67;;;6.27;;
8102;SDS011;4094;49.948;11.574;2023-04-24T03:41:27;6.90;;;6.40;;
8102;SDS011;4094;49.948;11.574;2023-04-24T03:44:29;7.27;;;6.77;;
8102;SDS011;4094;49.948;11.574;2023-04-24T03:46:58;7.10;;;6.60;;
8102;SDS011;4094;49.948;11.574;2023-04-24T03:49:30;6.73;;;6.33;;
8102;SDS011;4094;49.948;11.574;2023-04-24T03:51:59;6.57;;;6.20;;
8102;SDS011;4094;49.948;11.574;2023-04-24T03:54:28;6.90;;;6.50;;
8102;SDS011;4094;49.948;11.574;2023-04-24T03:56:59;7.27;;;6.87;;
8102;SDS011;4094;49.948;11.574;2023-04-24T03:59:30;7.37;;;6.87;;
8102;SDS011;4094;49.948;11.574;2023-04-24T04:02:09;7.23;;;6.83;;
8102;SDS011;4094;49.948;11.574;2023-04-24T04:04:40;7.30;;;6.80;;
8102;SDS011;4094;49.948;11.574;2023-04-24T04:07:10;7.30;;;6.80;;
8102;SDS011;4094;49.948;11.574;2023-04-24T04:09:40;7.47;;;6.97;;
8102;SDS011;4094;49.948;11.574;2023-04-24T04:12:10;6.90;;;6.27;;
8102;SDS011;4094;49.948;11.574;2023-04-24T04:14:40;7.10;;;6.60;;
8102;SDS011;4094;49.948;11.574;2023-04-24T04:17:09;6.73;;;6.33;;
8102;SDS011;4094;49.948;11.574;2023-04-24T04:19:40;7.13;;;6.73;;
8102;SDS011;4094;49.948;11.574;2023-04-24T04:22:10;7.13;;;6.73;;
8102;SDS011;4094;49.948;11.574;2023-04-24T04:24:43;7.13;;;6.73;;
8102;SDS011;4094;49.948;11.574;2023-04-24T04:27:14;7.00;;;6.57;;
8102;SDS011;4094;49.948;11.574;2023-04-24T04:29:54;7.43;;;6.80;;
8102;SDS011;4094;49.948;11.574;2023-04-24T04:32:24;6.87;;;6.47;;
8102;SDS011;4094;49.948;11.574;2023-04-24T04:34:55;7.10;;;6.60;;
8102;SDS011;4094;49.948;11.574;2023-04-24T04:37:27;6.63;;;6.23;;
8102;SDS011;4094;49.948;11.574;2023-04-24T04:40:15;6.50;;;5.90;;
8102;SDS011;4094;49.948;11.574;2023-04-24T04:42:57;6.80;;;6.40;;
8102;SDS011;4094;49.948;11.574;2023-04-24T04:45:30;6.33;;;5.93;;
8102;SDS011;4094;49.948;11.574;2023-04-24T04:48:28;6.20;;;5.90;;
8102;SDS011;4094;49.948;11.574;2023-04-24T04:51:02;6.73;;;6.33;;
8102;SDS011;4094;49.948;11.574;2023-04-24T04:53:31;7.00;;;6.33;;
8102;SDS011;4094;49.948;11.574;2023-04-24T04:56:01;6.73;;;6.23;;
8102;SDS011;4094;49.948;11.574;2023-04-24T04:58:37;6.60;;;6.10;;
8102;SDS011;4094;49.948;11.574;2023-04-24T05:01:10;6.73;;;6.23;;
8102;SDS011;4094;49.948;11.574;2023-04-24T05:03:42;5.70;;;5.40;;
8102;SDS011;4094;49.948;11.574;2023-04-24T05:06:15;6.10;;;5.70;;
8102;SDS011;4094;49.948;11.574;2023-04-24T05:08:46;6.50;;;6.10;;
8102;SDS011;4094;49.948;11.574;2023-04-24T05:11:30;5.73;;;5.43;;
8102;SDS011;4094;49.948;11.574;2023-04-24T05:14:01;6.77;;;5.87;;
8102;SDS011;4094;49.948;11.574;2023-04-24T05:16:37;6.40;;;6.00;;
8102;SDS011;4094;49.948;11.574;2023-04-24T05:19:07;6.23;;;5.93;;
8102;SDS011;4094;49.948;11.574;2023-04-24T05:21:41;6.40;;;5.90;;
8102;SDS011;4094;49.948;11.574;2023-04-24T05:24:11;6.13;;;5.73;;
8102;SDS011;4094;49.948;11.574;2023-04-24T05:26:48;5.73;;;5.43;;
8102;SDS011;4094;49.948;11.574;2023-04-24T05:29:22;5.93;;;5.63;;
8102;SDS011;4094;49.948;11.574;2023-04-24T05:31:54;6.30;;;5.80;;
8102;SDS011;4094;49.948;11.574;2023-04-24T05:34:23;5.80;;;5.50;;
8102;SDS011;4094;49.948;11.574;2023-04-24T05:36:57;5.53;;;5.23;;
8102;SDS011;4094;49.948;11.574;2023-04-24T05:39:26;5.70;;;5.30;;
8102;SDS011;4094;49.948;11.574;2023-04-24T05:41:56;5.83;;;5.53;;
8102;SDS011;4094;49.948;11.574;2023-04-24T05:44:25;6.20;;;5.53;;
8102;SDS011;4094;49.948;11.574;2023-04-24T05:46:55;5.90;;;5.50;;
8102;SDS011;4094;49.948;11.574;2023-04-24T05:49:25;5.60;;;5.20;;
8102;SDS011;4094;49.948;11.574;2023-04-24T05:51:55;6.00;;;5.60;;
8102;SDS011;4094;49.948;11.574;2023-04-24T05:54:26;5.50;;;5.20;;
8102;SDS011;4094;49.948;11.574;2023-04-24T05:56:56;5.27;;;4.77;;
8102;SDS011;4094;49.948;11.574;2023-04-24T05:59:36;5.70;;;5.20;;
8102;SDS011;4094;49.948;11.574;2023-04-24T06:02:06;5.50;;;4.90;;
8102;SDS011;4094;49.948;11.574;2023-04-24T06:04:36;5.23;;;5.03;;
8102;SDS011;4094;49.948;11.574;2023-04-24T06:07:07;5.87;;;5.40;;
8102;SDS011;4094;49.948;11.574;2023-04-24T06:09:36;6.33;;;5.83;;
8102;SDS011;4094;49.948;11.574;2023-04-24T06:12:06;5.63;;;5.13;;
8102;SDS011;4094;49.948;11.574;2023-04-24T06:14:50;5.97;;;5.57;;
8102;SDS011;4094;49.948;11.574;2023-04-24T06:17:25;5.53;;;5.23;;
8102;SDS011;4094;49.948;11.574;2023-04-24T06:19:54;5.57;;;5.10;;
8102;SDS011;4094;49.948;11.574;2023-04-24T06:22:26;5.20;;;4.87;;
8102;SDS011;4094;49.948;11.574;2023-04-24T06:24:56;6.00;;;5.60;;
8102;SDS011;4094;49.948;11.574;2023-04-24T06:27:25;5.80;;;5.40;;
8102;SDS011;4094;49.948;11.574;2023-04-24T06:29:55;5.20;;;4.87;;
8102;SDS011;4094;49.948;11.574;2023-04-24T06:32:24;5.50;;;5.10;;
8102;SDS011;4094;49.948;11.574;2023-04-24T06:34:54;5.10;;;4.80;;
8102;SDS011;4094;49.948;11.574;2023-04-24T06:37:27;5.50;;;5.10;;
8102;SDS011;4094;49.948;11.574;2023-04-24T06:39:56;4.93;;;4.63;;
8102;SDS011;4094;49.948;11.574;2023-04-24T06:42:26;4.97;;;4.67;;
8102;SDS011;4094;49.948;11.574;2023-04-24T06:44:56;5.27;;;4.97;;
8102;SDS011;4094;49.948;11.574;2023-04-24T06:47:25;5.40;;;5.10;;
8102;SDS011;4094;49.948;11.574;2023-04-24T06:49:54;4.97;;;4.53;;
8102;SDS011;4094;49.948;11.574;2023-04-24T06:52:27;5.30;;;5.00;;
8102;SDS011;4094;49.948;11.574;2023-04-24T06:55:00;5.37;;;4.97;;
8102;SDS011;4094;49.948;11.574;2023-04-24T06:57:31;5.40;;;5.10;;
8102;SDS011;4094;49.948;11.574;2023-04-24T07:00:00;5.47;;;5.07;;
8102;SDS011;4094;49.948;11.574;2023-04-24T07:02:31;5.17;;;4.77;;
8102;SDS011;4094;49.948;11.574;2023-04-24T07:05:01;5.10;;;4.80;;
8102;SDS011;4094;49.948;11.574;2023-04-24T07:07:32;5.03;;;4.63;;
8102;SDS011;4094;49.948;11.574;2023-04-24T07:10:01;5.33;;;5.03;;
8102;SDS011;4094;49.948;11.574;2023-04-24T07:12:31;5.57;;;5.17;;
8102;SDS011;4094;49.948;11.574;2023-04-24T07:15:00;5.27;;;4.97;;
8102;SDS011;4094;49.948;11.574;2023-04-24T07:17:30;5.43;;;5.03;;
8102;SDS011;4094;49.948;11.574;2023-04-24T07:19:59;5.53;;;5.03;;
8102;SDS011;4094;49.948;11.574;2023-04-24T07:22:29;4.83;;;4.53;;
8102;SDS011;4094;49.948;11.574;2023-04-24T07:24:59;6.10;;;5.50;;
8102;SDS011;4094;49.948;11.574;2023-04-24T07:27:29;4.87;;;4.60;;
8102;SDS011;4094;49.948;11.574;2023-04-24T07:29:58;4.90;;;4.50;;
8102;SDS011;4094;49.948;11.574;2023-04-24T07:32:28;5.00;;;4.77;;
8102;SDS011;4094;49.948;11.574;2023-04-24T07:34:57;4.87;;;4.57;;
8102;SDS011;4094;49.948;11.574;2023-04-24T07:37:26;4.70;;;4.40;;
8102;SDS011;4094;49.948;11.574;2023-04-24T07:39:57;5.27;;;4.97;;
8102;SDS011;4094;49.948;11.574;2023-04-24T07:42:27;4.57;;;4.30;;
8102;SDS011;4094;49.948;11.574;2023-04-24T07:44:57;4.60;;;4.30;;
8102;SDS011;4094;49.948;11.574;2023-04-24T07:47:46;4.47;;;4.27;;
8102;SDS011;4094;49.948;11.574;2023-04-24T07:50:15;4.27;;;4.07;;
8102;SDS011;4094;49.948;11.574;2023-04-24T07:52:44;4.57;;;4.20;;
8102;SDS011;4094;49.948;11.574;2023-04-24T07:55:13;4.80;;;4.50;;
8102;SDS011;4094;49.948;11.574;2023-04-24T07:57:42;4.77;;;4.47;;
8102;SDS011;4094;49.948;11.574;2023-04-24T08:00:12;4.90;;;4.60;;
8102;SDS011;4094;49.948;11.574;2023-04-24T08:02:41;4.87;;;4.47;;
8102;SDS011;4094;49.948;11.574;2023-04-24T08:05:12;4.50;;;4.30;;
8102;SDS011;4094;49.948;11.574;2023-04-24T08:07:41;4.80;;;4.50;;
8102;SDS011;4094;49.948;11.574;2023-04-24T08:10:10;4.70;;;4.40;;
8102;SDS011;4094;49.948;11.574;2023-04-24T08:12:41;4.60;;;4.20;;
8102;SDS011;4094;49.948;11.574;2023-04-24T08:15:10;4.57;;;4.30;;
8102;SDS011;4094;49.948;11.574;2023-04-24T08:17:40;4.97;;;4.67;;
8102;SDS011;4094;49.948;11.574;2023-04-24T08:20:11;4.57;;;4.27;;
8102;SDS011;4094;49.948;11.574;2023-04-24T08:22:42;4.70;;;4.30;;
8102;SDS011;4094;49.948;11.574;2023-04-24T08:25:14;4.67;;;4.43;;
8102;SDS011;4094;49.948;11.574;2023-04-24T08:27:44;3.97;;;3.77;;
8102;SDS011;4094;49.948;11.574;2023-04-24T08:30:14;4.47;;;4.20;;
8102;SDS011;4094;49.948;11.574;2023-04-24T08:32:43;4.73;;;4.53;;
8102;SDS011;4094;49.948;11.574;2023-04-24T08:35:14;4.60;;;4.30;;
8102;SDS011;4094;49.948;11.574;2023-04-24T08:37:43;4.50;;;4.30;;
8102;SDS011;4094;49.948;11.574;2023-04-24T08:40:13;5.13;;;4.70;;
8102;SDS011;4094;49.948;11.574;2023-04-24T08:42:43;4.50;;;4.20;;
8102;SDS011;4094;49.948;11.574;2023-04-24T08:45:13;4.43;;;4.23;;
8102;SDS011;4094;49.948;11.574;2023-04-24T08:47:43;4.83;;;4.53;;
8102;SDS011;4094;49.948;11.574;2023-04-24T08:50:14;4.27;;;3.97;;
8102;SDS011;4094;49.948;11.574;2023-04-24T08:52:44;4.80;;;4.50;;
8102;SDS011;4094;49.948;11.574;2023-04-24T08:55:13;4.70;;;4.40;;
8102;SDS011;4094;49.948;11.574;2023-04-24T08:57:44;5.17;;;4.77;;
8102;SDS011;4094;49.948;11.574;2023-04-24T09:00:17;4.97;;;4.67;;
8102;SDS011;4094;49.948;11.574;2023-04-24T09:02:48;4.90;;;4.53;;
8102;SDS011;4094;49.948;11.574;2023-04-24T09:05:20;4.60;;;4.30;;
8102;SDS011;4094;49.948;11.574;2023-04-24T09:07:55;4.53;;;4.13;;
8102;SDS011;4094;49.948;11.574;2023-04-24T09:10:25;5.10;;;4.70;;
8102;SDS011;4094;49.948;11.574;2023-04-24T09:12:58;4.90;;;4.70;;
8102;SDS011;4094;49.948;11.574;2023-04-24T09:15:29;4.70;;;4.40;;
8102;SDS011;4094;49.948;11.574;2023-04-24T09:17:59;4.57;;;4.37;;
8102;SDS011;4094;49.948;11.574;2023-04-24T09:20:30;4.87;;;4.57;;
8102;SDS011;4094;49.948;11.574;2023-04-24T09:22:59;4.90;;;4.60;;
8102;SDS011;4094;49.948;11.574;2023-04-24T09:25:30;4.47;;;4.27;;
8102;SDS011;4094;49.948;11.574;2023-04-24T09:28:01;4.73;;;4.40;;
8102;SDS011;4094;49.948;11.574;2023-04-24T09:30:31;4.77;;;4.47;;
8102;SDS011;4094;49.948;11.574;2023-04-24T09:33:10;4.83;;;4.43;;
8102;SDS011;4094;49.948;11.574;2023-04-24T09:35:42;4.40;;;4.13;;
8102;SDS011;4094;49.948;11.574;2023-04-24T09:38:17;4.63;;;4.43;;
8102;SDS011;4094;49.948;11.574;2023-04-24T09:40:46;4.80;;;4.50;;
8102;SDS011;4094;49.948;11.574;2023-04-24T09:43:16;5.03;;;4.63;;
8102;SDS011;4094;49.948;11.574;2023-04-24T09:45:46;4.97;;;4.77;;
8102;SDS011;4094;49.948;11.574;2023-04-24T09:48:15;4.90;;;4.67;;
8102;SDS011;4094;49.948;11.574;2023-04-24T09:50:46;4.77;;;4.57;;
8102;SDS011;4094;49.948;11.574;2023-04-24T09:53:16;5.00;;;4.80;;
8102;SDS011;4094;49.948;11.574;2023-04-24T09:55:53;4.73;;;4.53;;
8102;SDS011;4094;49.948;11.574;2023-04-24T09:58:25;4.27;;;4.07;;
8102;SDS011;4094;49.948;11.574;2023-04-24T10:00:55;4.67;;;4.27;;
8102;SDS011;4094;49.948;11.574;2023-04-24T10:03:25;4.80;;;4.50;;
8102;SDS011;4094;49.948;11.574;2023-04-24T10:05:59;4.43;;;4.23;;
8102;SDS011;4094;49.948;11.574;2023-04-24T10:08:33;4.43;;;4.23;;
8102;SDS011;4094;49.948;11.574;2023-04-24T10:11:03;4.80;;;4.50;;
8102;SDS011;4094;49.948;11.574;2023-04-24T10:13:32;4.70;;;4.40;;
8102;SDS011;4094;49.948;11.574;2023-04-24T10:16:02;4.60;;;4.40;;
8102;SDS011;4094;49.948;11.574;2023-04-24T10:18:32;4.93;;;4.43;;
8102;SDS011;4094;49.948;11.574;2023-04-24T10:21:04;5.10;;;4.80;;
8102;SDS011;4094;49.948;11.574;2023-04-24T10:23:34;5.10;;;4.70;;
8102;SDS011;4094;49.948;11.574;2023-04-24T10:26:04;4.70;;;4.43;;
8102;SDS011;4094;49.948;11.574;2023-04-24T10:28:34;4.70;;;4.50;;
8102;SDS011;4094;49.948;11.574;2023-04-24T10:31:05;4.73;;;4.43;;
8102;SDS011;4094;49.948;11.574;2023-04-24T10:33:34;4.77;;;4.47;;
8102;SDS011;4094;49.948;11.574;2023-04-24T10:36:06;5.23;;;4.83;;
8102;SDS011;4094;49.948;11.574;2023-04-24T10:38:36;4.93;;;4.53;;
8102;SDS011;4094;49.948;11.574;2023-04-24T10:41:08;4.90;;;4.60;;
8102;SDS011;4094;49.948;11.574;2023-04-24T10:43:43;4.80;;;4.60;;
8102;SDS011;4094;49.948;11.574;2023-04-24T10:46:16;4.93;;;4.70;;
8102;SDS011;4094;49.948;11.574;2023-04-24T10:48:52;5.60;;;5.00;;
8102;SDS011;4094;49.948;11.574;2023-04-24T10:51:24;4.93;;;4.63;;
8102;SDS011;4094;49.948;11.574;2023-04-24T10:54:21;4.93;;;4.70;;
8102;SDS011;4094;49.948;11.574;2023-04-24T10:56:51;4.47;;;4.27;;
8102;SDS011;4094;49.948;11.574;2023-04-24T10:59:25;4.87;;;4.57;;
8102;SDS011;4094;49.948;11.574;2023-04-24T11:01:55;5.00;;;4.60;;
8102;SDS011;4094;49.948;11.574;2023-04-24T11:04:28;4.87;;;4.47;;
8102;SDS011;4094;49.948;11.574;2023-04-24T11:07:00;5.10;;;4.80;;
8102;SDS011;4094;49.948;11.574;2023-04-24T11:09:31;5.43;;;5.13;;
8102;SDS011;4094;49.948;11.574;2023-04-24T11:12:04;4.87;;;4.57;;
8102;SDS011;4094;49.948;11.574;2023-04-24T11:17:31;5.30;;;5.00;;
8102;SDS011;4094;49.948;11.574;2023-04-24T11:20:02;5.00;;;4.60;;
8102;SDS011;4094;49.948;11.574;2023-04-24T11:22:55;4.60;;;4.40;;
8102;SDS011;4094;49.948;11.574;2023-04-24T11:25:25;4.50;;;4.30;;
8102;SDS011;4094;49.948;11.574;2023-04-24T11:28:04;4.80;;;4.50;;
8102;SDS011;4094;49.948;11.574;2023-04-24T11:30:34;4.07;;;3.87;;
8102;SDS011;4094;49.948;11.574;2023-04-24T11:33:08;4.40;;;4.20;;
8102;SDS011;4094;49.948;11.574;2023-04-24T11:35:39;3.97;;;3.77;;
8102;SDS011;4094;49.948;11.574;2023-04-24T11:38:10;4.00;;;3.70;;
8102;SDS011;4094;49.948;11.574;2023-04-24T11:40:51;4.80;;;3.83;;
8102;SDS011;4094;49.948;11.574;2023-04-24T11:43:22;4.23;;;4.03;;
8102;SDS011;4094;49.948;11.574;2023-04-24T11:45:52;4.10;;;3.90;;
8102;SDS011;4094;49.948;11.574;2023-04-24T11:48:21;4.13;;;3.90;;
8102;SDS011;4094;49.948;11.574;2023-04-24T11:50:51;4.00;;;3.70;;
8102;SDS011;4094;49.948;11.574;2023-04-24T11:53:22;3.80;;;3.60;;
8102;SDS011;4094;49.948;11.574;2023-04-24T11:55:51;4.00;;;3.80;;
8102;SDS011;4094;49.948;11.574;2023-04-24T11:58:21;4.00;;;3.80;;
8102;SDS011;4094;49.948;11.574;2023-04-24T12:00:55;3.60;;;3.40;;
8102;SDS011;4094;49.948;11.574;2023-04-24T12:03:25;3.60;;;3.40;;
8102;SDS011;4094;49.948;11.574;2023-04-24T12:06:04;3.80;;;3.60;;
8102;SDS011;4094;49.948;11.574;2023-04-24T12:08:36;3.80;;;3.50;;
8102;SDS011;4094;49.948;11.574;2023-04-24T12:11:06;4.33;;;3.90;;
8102;SDS011;4094;49.948;11.574;2023-04-24T12:13:37;4.60;;;3.80;;
8102;SDS011;4094;49.948;11.574;2023-04-24T12:16:06;4.20;;;4.00;;
8102;SDS011;4094;49.948;11.574;2023-04-24T12:18:40;3.70;;;3.50;;
8102;SDS011;4094;49.948;11.574;2023-04-24T12:21:15;4.00;;;3.80;;
8102;SDS011;4094;49.948;11.574;2023-04-24T12:23:50;4.20;;;3.90;;
8102;SDS011;4094;49.948;11.574;2023-04-24T12:26:23;4.40;;;4.20;;
8102;SDS011;4094;49.948;11.574;2023-04-24T12:28:53;4.03;;;3.80;;
8102;SDS011;4094;49.948;11.574;2023-04-24T12:31:22;4.20;;;3.87;;
8102;SDS011;4094;49.948;11.574;2023-04-24T12:33:52;4.60;;;4.30;;
8102;SDS011;4094;49.948;11.574;2023-04-24T12:36:21;4.23;;;4.00;;
8102;SDS011;4094;49.948;11.574;2023-04-24T12:38:53;4.40;;;4.20;;
8102;SDS011;4094;49.948;11.574;2023-04-24T12:41:23;4.33;;;4.13;;
8102;SDS011;4094;49.948;11.574;2023-04-24T12:43:52;4.47;;;4.27;;
8102;SDS011;4094;49.948;11.574;2023-04-24T12:46:23;4.77;;;4.47;;
8102;SDS011;4094;49.948;11.574;2023-04-24T12:48:52;4.60;;;4.20;;
8102;SDS011;4094;49.948;11.574;2023-04-24T12:51:22;4.73;;;4.37;;
8102;SDS011;4094;49.948;11.574;2023-04-24T12:53:54;4.30;;;4.10;;
8102;SDS011;4094;49.948;11.574;2023-04-24T12:56:23;4.47;;;4.20;;
8102;SDS011;4094;49.948;11.574;2023-04-24T12:58:52;4.67;;;4.37;;
8102;SDS011;4094;49.948;11.574;2023-04-24T13:01:22;4.27;;;3.97;;
8102;SDS011;4094;49.948;11.574;2023-04-24T13:03:51;4.63;;;4.30;;
8102;SDS011;4094;49.948;11.574;2023-04-24T13:06:22;4.70;;;4.30;;
8102;SDS011;4094;49.948;11.574;2023-04-24T13:08:51;5.53;;;4.53;;
8102;SDS011;4094;49.948;11.574;2023-04-24T13:11:23;4.90;;;4.60;;
8102;SDS011;4094;49.948;11.574;2023-04-24T13:13:52;4.53;;;4.33;;
8102;SDS011;4094;49.948;11.574;2023-04-24T13:16:23;4.73;;;4.43;;
8102;SDS011;4094;49.948;11.574;2023-04-24T13:18:52;4.97;;;4.57;;
8102;SDS011;4094;49.948;11.574;2023-04-24T13:21:22;4.87;;;4.57;;
8102;SDS011;4094;49.948;11.574;2023-04-24T13:23:51;4.80;;;4.50;;
8102;SDS011;4094;49.948;11.574;2023-04-24T13:26:21;4.90;;;4.50;;
8102;SDS011;4094;49.948;11.574;2023-04-24T13:28:52;5.00;;;4.60;;
8102;SDS011;4094;49.948;11.574;2023-04-24T13:31:21;4.60;;;4.40;;
8102;SDS011;4094;49.948;11.574;2023-04-24T13:33:50;4.43;;;4.20;;
8102;SDS011;4094;49.948;11.574;2023-04-24T13:36:20;4.77;;;4.57;;
8102;SDS011;4094;49.948;11.574;2023-04-24T13:38:49;5.20;;;4.80;;
8102;SDS011;4094;49.948;11.574;2023-04-24T13:41:18;5.10;;;4.80;;
8102;SDS011;4094;49.948;11.574;2023-04-24T13:43:48;4.80;;;4.60;;
8102;SDS011;4094;49.948;11.574;2023-04-24T13:46:18;4.80;;;4.50;;
8102;SDS011;4094;49.948;11.574;2023-04-24T13:48:48;4.73;;;4.50;;
8102;SDS011;4094;49.948;11.574;2023-04-24T13:51:17;4.37;;;4.17;;
8102;SDS011;4094;49.948;11.574;2023-04-24T13:53:47;4.57;;;4.37;;
8102;SDS011;4094;49.948;11.574;2023-04-24T13:56:16;4.80;;;4.50;;
8102;SDS011;4094;49.948;11.574;2023-04-24T13:58:46;4.53;;;4.23;;
8102;SDS011;4094;49.948;11.574;2023-04-24T14:01:15;4.70;;;4.40;;
8102;SDS011;4094;49.948;11.574;2023-04-24T14:03:47;4.80;;;4.50;;
8102;SDS011;4094;49.948;11.574;2023-04-24T14:06:16;4.50;;;4.30;;
8102;SDS011;4094;49.948;11.574;2023-04-24T14:08:46;4.33;;;4.13;;
8102;SDS011;4094;49.948;11.574;2023-04-24T14:11:16;4.43;;;4.13;;
8102;SDS011;4094;49.948;11.574;2023-04-24T14:13:45;4.30;;;4.10;;
8102;SDS011;4094;49.948;11.574;2023-04-24T14:16:14;4.20;;;4.00;;
8102;SDS011;4094;49.948;11.574;2023-04-24T14:18:44;4.00;;;3.80;;
8102;SDS011;4094;49.948;11.574;2023-04-24T14:21:15;4.37;;;4.07;;
8102;SDS011;4094;49.948;11.574;2023-04-24T14:23:44;4.10;;;3.90;;
8102;SDS011;4094;49.948;11.574;2023-04-24T14:26:13;4.63;;;4.30;;
8102;SDS011;4094;49.948;11.574;2023-04-24T14:28:43;4.60;;;4.40;;
8102;SDS011;4094;49.948;11.574;2023-04-24T14:31:13;4.80;;;4.40;;
8102;SDS011;4094;49.948;11.574;2023-04-24T14:33:42;4.03;;;3.83;;
8102;SDS011;4094;49.948;11.574;2023-04-24T14:36:16;4.60;;;4.30;;
8102;SDS011;4094;49.948;11.574;2023-04-24T14:38:45;4.17;;;3.97;;
8102;SDS011;4094;49.948;11.574;2023-04-24T14:41:15;4.33;;;4.07;;
8102;SDS011;4094;49.948;11.574;2023-04-24T14:43:45;4.90;;;4.60;;
8102;SDS011;4094;49.948;11.574;2023-04-24T14:46:15;4.20;;;4.00;;
8102;SDS011;4094;49.948;11.574;2023-04-24T14:48:45;4.47;;;4.17;;
8102;SDS011;4094;49.948;11.574;2023-04-24T14:51:14;4.23;;;4.00;;
8102;SDS011;4094;49.948;11.574;2023-04-24T14:53:45;4.37;;;4.17;;
8102;SDS011;4094;49.948;11.574;2023-04-24T14:56:15;4.10;;;3.90;;
8102;SDS011;4094;49.948;11.574;2023-04-24T14:58:44;4.47;;;4.27;;
8102;SDS011;4094;49.948;11.574;2023-04-24T15:01:13;4.97;;;4.57;;
8102;SDS011;4094;49.948;11.574;2023-04-24T15:03:44;4.70;;;4.50;;
8102;SDS011;4094;49.948;11.574;2023-04-24T15:06:14;5.10;;;4.80;;
8102;SDS011;4094;49.948;11.574;2023-04-24T15:08:45;5.20;;;4.90;;
8102;SDS011;4094;49.948;11.574;2023-04-24T15:11:17;5.03;;;4.73;;
8102;SDS011;4094;49.948;11.574;2023-04-24T15:13:46;5.57;;;5.20;;
8102;SDS011;4094;49.948;11.574;2023-04-24T15:16:16;5.57;;;5.27;;
8102;SDS011;4094;49.948;11.574;2023-04-24T15:18:45;5.27;;;4.97;;
8102;SDS011;4094;49.948;11.574;2023-04-24T15:21:14;5.60;;;5.30;;
8102;SDS011;4094;49.948;11.574;2023-04-24T15:23:45;5.57;;;5.27;;
8102;SDS011;4094;49.948;11.574;2023-04-24T15:26:15;5.63;;;5.23;;